Time;durP1;ratioP1;P1;durP2;ratioP2;P2;SDS_P1;SDS_P2;PMS_P1;PMS_P2;Temp;Humidity;BMP_temperature;BMP_pressure;BME280_temperature;BME280_humidity;BME280_pressure;Samples;Min_cycle;Max_cycle;Signal;HPM_P1;HPM_P2
2021/04/05 00:02:29;;;;;;;20.27;8.53;;;;;;;;;;10419228;28;20747;-75
2021/04/05 00:07:31;;;;;;;19.50;7.93;;;;;;;;;;10428335;28;20617;-76
2021/04/05 00:12:33;;;;;;;22.07;8.50;;;;;;;;;;10416809;28;20692;-75
2021/04/05 00:17:36;;;;;;;19.07;8.53;;;;;;;;;;10422644;28;20215;-75
2021/04/05 00:22:40;;;;;;;25.60;9.20;;;;;;;;;;10430310;28;20622;-75
2021/04/05 00:27:42;;;;;;;21.80;9.23;;;;;;;;;;10423232;28;20243;-74
2021/04/05 00:32:47;;;;;;;22.87;9.20;;;;;;;;;;10426109;28;20324;-75
2021/04/05 00:37:51;;;;;;;24.83;9.63;;;;;;;;;;10416500;28;20215;-76
2021/04/05 00:42:53;;;;;;;23.73;10.00;;;;;;;;;;10424110;28;20212;-74
2021/04/05 00:47:55;;;;;;;25.97;9.80;;;;;;;;;;10422674;28;20228;-74
2021/04/05 00:52:58;;;;;;;27.37;10.57;;;;;;;;;;10426976;28;20590;-74
2021/04/05 00:58:00;;;;;;;23.10;10.20;;;;;;;;;;10414136;28;20294;-75
2021/04/05 01:03:03;;;;;;;24.30;9.77;;;;;;;;;;10425010;28;20216;-74
2021/04/05 01:08:07;;;;;;;23.80;10.10;;;;;;;;;;10423198;28;20700;-74
2021/04/05 01:13:08;;;;;;;26.30;10.07;;;;;;;;;;10415178;28;21249;-74
2021/04/05 01:18:11;;;;;;;29.00;10.20;;;;;;;;;;10422296;28;20584;-74
2021/04/05 01:23:15;;;;;;;25.53;10.90;;;;;;;;;;10422968;28;20222;-74
2021/04/05 01:28:16;;;;;;;29.10;10.90;;;;;;;;;;10411988;28;20287;-75
2021/04/05 01:33:19;;;;;;;29.47;10.80;;;;;;;;;;10421476;28;20636;-74
2021/04/05 01:38:23;;;;;;;31.83;11.40;;;;;;;;;;10416373;28;20228;-75
2021/04/05 01:43:25;;;;;;;24.73;11.17;;;;;;;;;;10419481;28;20587;-76
2021/04/05 01:48:28;;;;;;;25.53;10.13;;;;;;;;;;10420116;28;20603;-75
2021/04/05 01:53:31;;;;;;;27.63;10.40;;;;;;;;;;10411426;28;20217;-75
2021/04/05 01:58:33;;;;;;;31.53;9.43;;;;;;;;;;10418262;28;20429;-75
2021/04/05 02:03:36;;;;;;;30.33;8.60;;;;;;;;;;10411728;28;20235;-74
2021/04/05 02:08:40;;;;;;;25.10;8.10;;;;;;;;;;10420860;28;20322;-74
2021/04/05 02:13:42;;;;;;;21.77;7.67;;;;;;;;;;10419407;28;20717;-76
2021/04/05 02:18:44;;;;;;;20.97;7.63;;;;;;;;;;10422774;28;20583;-75
2021/04/05 02:23:48;;;;;;;22.57;7.00;;;;;;;;;;10417154;28;20727;-74
2021/04/05 02:28:51;;;;;;;16.43;7.27;;;;;;;;;;10411583;28;20238;-75
2021/04/05 02:33:53;;;;;;;20.37;7.10;;;;;;;;;;10421105;28;20686;-75
2021/04/05 02:38:57;;;;;;;19.00;6.97;;;;;;;;;;10414119;28;20207;-76
2021/04/05 02:43:59;;;;;;;17.03;7.23;;;;;;;;;;10419943;28;20215;-76
2021/04/05 02:49:03;;;;;;;15.40;6.63;;;;;;;;;;10412148;28;20235;-75
2021/04/05 02:54:06;;;;;;;16.43;7.23;;;;;;;;;;10417241;28;20208;-75
2021/04/05 02:59:08;;;;;;;17.60;6.80;;;;;;;;;;10414798;28;20486;-75
2021/04/05 03:04:10;;;;;;;16.07;6.67;;;;;;;;;;10420998;28;20231;-75
2021/04/05 03:09:13;;;;;;;15.97;6.67;;;;;;;;;;10420901;28;20608;-76
2021/04/05 03:14:15;;;;;;;20.57;7.10;;;;;;;;;;10422306;28;20207;-75
2021/04/05 03:19:18;;;;;;;15.83;7.10;;;;;;;;;;10420458;28;20687;-75
2021/04/05 03:24:21;;;;;;;15.70;6.80;;;;;;;;;;10398611;28;20222;-75
2021/04/05 03:29:24;;;;;;;17.10;7.57;;;;;;;;;;10418872;28;20731;-76
2021/04/05 03:34:26;;;;;;;15.20;6.67;;;;;;;;;;10414665;28;20223;-74
2021/04/05 03:39:29;;;;;;;18.00;7.33;;;;;;;;;;10419095;28;20246;-73
2021/04/05 03:44:35;;;;;;;14.73;7.23;;;;;;;;;;10407495;28;20212;-75
2021/04/05 03:49:40;;;;;;;16.27;7.10;;;;;;;;;;10419148;28;20660;-75
2021/04/05 03:54:45;;;;;;;15.83;7.03;;;;;;;;;;10414544;28;20208;-75
2021/04/05 03:59:49;;;;;;;20.10;7.73;;;;;;;;;;10416520;28;20223;-75
2021/04/05 04:04:57;;;;;;;16.60;7.07;;;;;;;;;;10415314;28;20747;-75
2021/04/05 04:10:00;;;;;;;21.40;7.10;;;;;;;;;;10428125;28;20328;-73
2021/04/05 04:15:03;;;;;;;13.60;6.80;;;;;;;;;;10416748;28;20214;-76
2021/04/05 04:20:06;;;;;;;12.57;6.53;;;;;;;;;;10417213;28;20780;-76
2021/04/05 04:25:09;;;;;;;16.40;7.27;;;;;;;;;;10429609;28;20252;-75
2021/04/05 04:30:16;;;;;;;14.73;6.73;;;;;;;;;;10415310;28;20241;-75
2021/04/05 04:35:18;;;;;;;16.87;7.07;;;;;;;;;;10425957;28;20219;-74
2021/04/05 04:40:24;;;;;;;17.30;6.50;;;;;;;;;;10421996;28;20217;-74
2021/04/05 04:45:26;;;;;;;16.93;7.03;;;;;;;;;;10428634;28;20229;-76
2021/04/05 04:50:28;;;;;;;17.10;6.67;;;;;;;;;;10413913;28;20243;-75
2021/04/05 04:55:31;;;;;;;16.03;7.17;;;;;;;;;;10424359;28;20658;-77
2021/04/05 05:00:33;;;;;;;13.23;6.17;;;;;;;;;;10418485;28;20239;-74
2021/04/05 05:05:36;;;;;;;17.80;6.93;;;;;;;;;;10418706;28;20246;-73
2021/04/05 05:10:39;;;;;;;14.23;5.63;;;;;;;;;;10409892;28;20918;-74
2021/04/05 05:15:43;;;;;;;7.57;2.30;;;;;;;;;;10424532;28;20221;-74
2021/04/05 05:20:45;;;;;;;3.93;1.87;;;;;;;;;;10411179;28;20219;-74
2021/04/05 05:25:49;;;;;;;4.57;1.80;;;;;;;;;;10419929;28;20216;-75
2021/04/05 05:30:51;;;;;;;5.70;1.70;;;;;;;;;;10418230;28;20638;-74
2021/04/05 05:35:53;;;;;;;7.10;2.10;;;;;;;;;;10420928;28;20247;-76
2021/04/05 05:40:59;;;;;;;6.70;1.90;;;;;;;;;;10422202;28;20217;-76
2021/04/05 05:46:04;;;;;;;8.03;2.00;;;;;;;;;;10397448;28;20233;-76
2021/04/05 05:51:10;;;;;;;8.90;2.10;;;;;;;;;;10405635;28;20263;-78
2021/04/05 05:56:30;;;;;;;8.90;2.13;;;;;;;;;;10410318;28;20215;-76
2021/04/05 06:01:48;;;;;;;7.43;2.20;;;;;;;;;;10411712;28;20214;-78
2021/04/05 06:06:53;;;;;;;7.83;1.87;;;;;;;;;;10406869;28;20647;-79
2021/04/05 06:11:59;;;;;;;15.40;2.40;;;;;;;;;;10407377;28;20231;-81
2021/04/05 06:17:05;;;;;;;8.80;2.30;;;;;;;;;;10416773;28;20384;-80
2021/04/05 06:22:12;;;;;;;7.67;1.90;;;;;;;;;;10411836;28;20295;-80
2021/04/05 06:27:14;;;;;;;6.60;1.93;;;;;;;;;;10404953;28;20227;-79
2021/04/05 06:32:23;;;;;;;9.73;2.50;;;;;;;;;;10414958;28;20805;-77
2021/04/05 06:37:27;;;;;;;7.57;1.90;;;;;;;;;;10426934;28;20234;-81
2021/04/05 06:48:09;;;;;;;7.20;1.73;;;;;;;;;;10362898;28;20279;-75
2021/04/05 06:53:38;;;;;;;6.67;1.80;;;;;;;;;;10344432;28;21670;-73
2021/04/05 06:59:01;;;;;;;8.20;2.30;;;;;;;;;;10360161;28;20212;-74
2021/04/05 07:04:14;;;;;;;13.10;2.57;;;;;;;;;;10358511;28;20229;-73
2021/04/05 07:09:19;;;;;;;12.87;2.60;;;;;;;;;;10391988;28;20751;-74
2021/04/05 07:14:30;;;;;;;9.53;2.53;;;;;;;;;;10391019;28;20634;-75
2021/04/05 07:19:43;;;;;;;11.43;2.63;;;;;;;;;;10380028;28;20231;-74
2021/04/05 07:24:50;;;;;;;13.77;2.63;;;;;;;;;;10385971;28;20246;-74
2021/04/05 07:29:58;;;;;;;13.63;3.27;;;;;;;;;;10380057;28;20610;-76
2021/04/05 07:35:03;;;;;;;13.13;2.90;;;;;;;;;;10393392;28;20215;-74
2021/04/05 07:40:10;;;;;;;10.90;3.10;;;;;;;;;;10395620;28;20667;-74
2021/04/05 07:45:15;;;;;;;14.57;3.13;;;;;;;;;;10393817;28;21894;-75
2021/04/05 07:50:22;;;;;;;10.83;2.70;;;;;;;;;;10400358;28;20247;-75
2021/04/05 07:55:25;;;;;;;15.07;2.90;;;;;;;;;;10397331;28;20735;-73
2021/04/05 08:00:30;;;;;;;10.77;2.80;;;;;;;;;;10398558;28;20212;-74
2021/04/05 08:05:56;;;;;;;10.47;2.80;;;;;;;;;;10401149;28;20739;-74
2021/04/05 08:11:06;;;;;;;11.97;2.53;;;;;;;;;;10385887;28;20258;-73
2021/04/05 08:16:14;;;;;;;12.23;2.47;;;;;;;;;;10401290;28;20207;-73
2021/04/05 08:21:20;;;;;;;9.20;2.03;;;;;;;;;;10395159;28;20294;-75
2021/04/05 08:26:26;;;;;;;10.17;2.27;;;;;;;;;;10400624;28;20218;-77
2021/04/05 08:31:35;;;;;;;7.70;2.20;;;;;;;;;;10400398;28;20747;-74
2021/04/05 08:36:45;;;;;;;6.60;2.00;;;;;;;;;;10402660;28;20291;-77
2021/04/05 08:41:51;;;;;;;5.23;1.60;;;;;;;;;;10395800;28;20829;-75
2021/04/05 08:46:55;;;;;;;5.17;1.87;;;;;;;;;;10400621;28;20791;-74
2021/04/05 08:52:00;;;;;;;4.43;1.67;;;;;;;;;;10404641;28;20235;-78
2021/04/05 08:57:06;;;;;;;5.97;2.30;;;;;;;;;;10391509;28;20304;-76
2021/04/05 09:02:16;;;;;;;6.57;1.77;;;;;;;;;;10400244;28;20216;-78
2021/04/05 09:07:22;;;;;;;2.17;1.30;;;;;;;;;;10389285;28;20232;-76
2021/04/05 09:12:26;;;;;;;4.50;1.53;;;;;;;;;;10384613;28;20598;-75
2021/04/05 09:17:38;;;;;;;4.17;1.93;;;;;;;;;;10372718;28;20228;-75
2021/04/05 09:22:59;;;;;;;3.73;1.50;;;;;;;;;;10394549;28;20212;-76
2021/04/05 09:28:11;;;;;;;7.57;1.80;;;;;;;;;;10385186;28;20573;-75
2021/04/05 09:33:32;;;;;;;6.17;1.60;;;;;;;;;;10393872;28;20215;-76
2021/04/05 09:38:42;;;;;;;8.23;1.87;;;;;;;;;;10379547;28;20216;-75
2021/04/05 09:44:01;;;;;;;7.03;1.90;;;;;;;;;;10401306;28;20224;-74
2021/04/05 09:49:09;;;;;;;7.50;2.03;;;;;;;;;;10392758;28;20258;-74
2021/04/05 09:54:21;;;;;;;8.90;2.33;;;;;;;;;;10397050;28;20220;-74
2021/04/05 09:59:33;;;;;;;10.43;2.30;;;;;;;;;;10384916;28;20204;-76
2021/04/05 10:04:38;;;;;;;8.97;2.27;;;;;;;;;;10387961;28;20326;-74
2021/04/05 10:09:41;;;;;;;6.70;2.03;;;;;;;;;;10382221;28;20247;-73
2021/04/05 10:14:43;;;;;;;7.17;2.10;;;;;;;;;;10394602;28;20710;-74
2021/04/05 10:19:50;;;;;;;6.80;2.03;;;;;;;;;;10392869;28;20322;-74
2021/04/05 10:24:56;;;;;;;7.17;1.80;;;;;;;;;;10387575;28;20228;-73
2021/04/05 10:30:01;;;;;;;9.20;2.17;;;;;;;;;;10384063;28;20609;-76
2021/04/05 10:35:04;;;;;;;7.57;1.93;;;;;;;;;;10397063;28;20216;-78
2021/04/05 10:40:10;;;;;;;9.73;2.50;;;;;;;;;;10466748;22;20337;-74
2021/04/05 10:45:16;;;;;;;10.10;2.50;;;;;;;;;;10443931;28;20226;-75
2021/04/05 10:50:24;;;;;;;6.17;1.97;;;;;;;;;;10448711;28;20541;-75
2021/04/05 10:55:28;;;;;;;8.93;2.00;;;;;;;;;;10441291;28;20296;-76
2021/04/05 11:00:34;;;;;;;11.10;2.13;;;;;;;;;;10445779;28;20552;-76
2021/04/05 11:05:37;;;;;;;9.07;2.30;;;;;;;;;;10444706;28;20234;-74
2021/04/05 11:10:39;;;;;;;12.73;2.60;;;;;;;;;;10441242;28;20690;-74
2021/04/05 11:15:42;;;;;;;8.67;1.90;;;;;;;;;;10452450;28;20230;-73
2021/04/05 11:20:48;;;;;;;5.10;1.93;;;;;;;;;;10449236;28;20584;-74
2021/04/05 11:25:51;;;;;;;7.43;1.97;;;;;;;;;;10456241;28;20211;-75
2021/04/05 11:30:59;;;;;;;11.97;2.17;;;;;;;;;;10447922;28;20896;-73
2021/04/05 11:36:04;;;;;;;11.23;2.20;;;;;;;;;;10446423;28;20568;-74
2021/04/05 11:41:07;;;;;;;7.90;2.07;;;;;;;;;;10449170;28;20852;-74
2021/04/05 11:46:10;;;;;;;4.40;1.50;;;;;;;;;;10449240;28;20203;-74
2021/04/05 11:51:14;;;;;;;3.33;1.43;;;;;;;;;;10452249;28;20234;-74
2021/04/05 11:56:20;;;;;;;5.93;2.07;;;;;;;;;;10451901;28;20208;-73
2021/04/05 12:01:23;;;;;;;7.00;1.70;;;;;;;;;;10454504;28;20663;-72
2021/04/05 12:06:39;;;;;;;8.97;1.97;;;;;;;;;;10446369;28;20560;-73
2021/04/05 12:11:42;;;;;;;7.27;1.80;;;;;;;;;;10446243;28;20249;-75
2021/04/05 12:16:48;;;;;;;8.27;1.60;;;;;;;;;;10448581;28;20226;-73
2021/04/05 12:21:54;;;;;;;8.43;1.90;;;;;;;;;;10441365;28;20957;-73
2021/04/05 12:26:57;;;;;;;4.50;1.70;;;;;;;;;;10446355;28;21059;-75
2021/04/05 12:32:00;;;;;;;7.47;1.70;;;;;;;;;;10449736;28;20245;-74
2021/04/05 12:37:17;;;;;;;9.40;1.77;;;;;;;;;;10451450;28;20231;-74
2021/04/05 12:42:19;;;;;;;6.90;1.73;;;;;;;;;;10432353;28;20219;-73
2021/04/05 12:47:27;;;;;;;4.50;1.70;;;;;;;;;;10441335;28;20622;-75
2021/04/05 12:52:33;;;;;;;4.87;1.70;;;;;;;;;;10448931;28;20249;-74
2021/04/05 12:57:35;;;;;;;8.30;1.97;;;;;;;;;;10447589;28;20587;-77
2021/04/05 13:02:38;;;;;;;9.53;1.70;;;;;;;;;;10450691;28;20742;-77
2021/04/05 13:07:48;;;;;;;5.73;1.70;;;;;;;;;;10446151;28;20227;-77
2021/04/05 13:12:52;;;;;;;6.17;1.93;;;;;;;;;;10438746;28;20818;-73
2021/04/05 13:17:55;;;;;;;6.63;1.83;;;;;;;;;;10441335;28;20207;-76
2021/04/05 13:23:03;;;;;;;5.07;1.90;;;;;;;;;;10450507;28;20469;-74
2021/04/05 13:28:06;;;;;;;7.60;1.87;;;;;;;;;;10450111;28;20219;-73
2021/04/05 13:33:09;;;;;;;7.97;1.67;;;;;;;;;;10444721;28;20571;-75
2021/04/05 13:38:13;;;;;;;6.23;1.33;;;;;;;;;;10440548;28;20219;-75
2021/04/05 13:43:17;;;;;;;2.13;1.20;;;;;;;;;;10445379;28;20226;-77
2021/04/05 13:48:23;;;;;;;4.93;1.43;;;;;;;;;;10441831;28;20633;-77
2021/04/05 13:53:29;;;;;;;3.40;1.30;;;;;;;;;;10444310;28;20586;-73
2021/04/05 13:58:33;;;;;;;3.63;1.20;;;;;;;;;;10430697;28;20220;-75
2021/04/05 14:03:35;;;;;;;4.43;1.50;;;;;;;;;;10447774;28;20235;-80
2021/04/05 14:08:41;;;;;;;5.27;1.53;;;;;;;;;;10439198;28;20238;-73
2021/04/05 14:13:43;;;;;;;3.90;1.50;;;;;;;;;;10445913;28;20207;-76
2021/04/05 14:18:51;;;;;;;6.47;1.60;;;;;;;;;;10444855;28;21066;-76
2021/04/05 14:24:02;;;;;;;5.73;1.40;;;;;;;;;;10424319;28;20210;-74
2021/04/05 14:29:06;;;;;;;3.53;1.50;;;;;;;;;;10441257;28;20231;-76
2021/04/05 14:34:10;;;;;;;6.93;2.23;;;;;;;;;;10433186;28;20237;-75
2021/04/05 14:39:14;;;;;;;8.40;2.03;;;;;;;;;;10418402;28;20222;-75
2021/04/05 14:44:17;;;;;;;5.30;1.80;;;;;;;;;;10434590;28;20690;-78
2021/04/05 14:49:20;;;;;;;6.10;1.80;;;;;;;;;;10433945;28;20253;-76
2021/04/05 14:54:25;;;;;;;7.87;1.80;;;;;;;;;;10594330;22;671839;-77
2021/04/05 14:59:29;;;;;;;5.60;1.60;;;;;;;;;;10444968;28;20226;-77
2021/04/05 15:04:32;;;;;;;7.27;1.90;;;;;;;;;;10429261;28;21154;-75
2021/04/05 15:09:38;;;;;;;5.67;2.00;;;;;;;;;;10427544;28;20253;-77
2021/04/05 15:14:42;;;;;;;5.67;1.90;;;;;;;;;;10440384;28;20210;-77
2021/04/05 15:19:50;;;;;;;6.23;1.80;;;;;;;;;;10444369;28;20226;-77
2021/04/05 15:24:53;;;;;;;7.67;2.07;;;;;;;;;;10444108;28;20592;-77
2021/04/05 15:30:00;;;;;;;9.43;2.43;;;;;;;;;;10448226;28;20238;-76
2021/04/05 15:35:06;;;;;;;8.83;2.00;;;;;;;;;;10436737;28;20226;-74
2021/04/05 15:40:09;;;;;;;5.23;1.83;;;;;;;;;;10449533;28;20706;-76
2021/04/05 15:45:16;;;;;;;3.83;1.50;;;;;;;;;;10439521;28;20223;-77
2021/04/05 15:50:26;;;;;;;8.23;1.80;;;;;;;;;;10432288;28;20719;-76
2021/04/05 15:55:30;;;;;;;5.67;1.73;;;;;;;;;;10432489;28;20700;-74
2021/04/05 16:00:35;;;;;;;3.03;1.40;;;;;;;;;;10435864;28;20230;-76
2021/04/05 16:05:42;;;;;;;2.23;1.20;;;;;;;;;;10437815;28;20639;-75
2021/04/05 16:10:47;;;;;;;4.43;1.30;;;;;;;;;;10438636;28;20238;-75
2021/04/05 16:15:52;;;;;;;3.33;1.60;;;;;;;;;;10436362;28;20203;-77
2021/04/05 16:20:55;;;;;;;3.90;1.80;;;;;;;;;;10446313;28;20606;-77
2021/04/05 16:26:00;;;;;;;3.83;1.40;;;;;;;;;;10445781;28;20215;-77
2021/04/05 16:31:05;;;;;;;4.07;1.60;;;;;;;;;;10445802;28;20578;-79
2021/04/05 16:36:09;;;;;;;5.40;1.70;;;;;;;;;;10439554;28;20285;-84
2021/04/05 16:41:13;;;;;;;5.53;1.90;;;;;;;;;;10432762;28;20219;-87
2021/04/05 16:46:15;;;;;;;7.83;1.70;;;;;;;;;;10431962;28;20219;-80
2021/04/05 16:51:18;;;;;;;4.90;1.70;;;;;;;;;;10433912;28;21894;-79
2021/04/05 16:56:23;;;;;;;5.00;1.90;;;;;;;;;;10448349;28;20215;-77
2021/04/05 17:01:26;;;;;;;7.63;2.20;;;;;;;;;;10444041;28;20527;-79
2021/04/05 17:06:29;;;;;;;7.13;2.00;;;;;;;;;;10440520;28;20223;-79
2021/04/05 17:11:32;;;;;;;8.80;1.93;;;;;;;;;;10433633;28;21056;-78
2021/04/05 17:16:36;;;;;;;10.50;2.73;;;;;;;;;;10434714;28;20219;-80
2021/04/05 17:21:39;;;;;;;10.07;2.37;;;;;;;;;;10443293;28;20438;-78
2021/04/05 17:26:42;;;;;;;5.63;2.07;;;;;;;;;;10445734;28;20237;-78
2021/04/05 17:31:44;;;;;;;7.43;2.07;;;;;;;;;;10432819;28;20254;-77
2021/04/05 17:36:49;;;;;;;7.80;2.53;;;;;;;;;;10437164;28;20214;-77
2021/04/05 17:41:56;;;;;;;11.60;2.83;;;;;;;;;;10429595;28;20226;-77
2021/04/05 17:47:11;;;;;;;9.50;2.30;;;;;;;;;;10442031;28;20476;-77
2021/04/05 17:52:16;;;;;;;10.63;2.40;;;;;;;;;;10443208;28;20380;-77
2021/04/05 17:57:23;;;;;;;11.80;2.80;;;;;;;;;;10440056;28;20306;-76
2021/04/05 18:02:27;;;;;;;15.47;3.10;;;;;;;;;;10437501;28;20655;-78
2021/04/05 18:07:32;;;;;;;12.60;3.97;;;;;;;;;;10440670;28;20250;-78
2021/04/05 18:12:38;;;;;;;11.27;3.07;;;;;;;;;;10441653;28;20598;-78
2021/04/05 18:17:51;;;;;;;13.13;2.50;;;;;;;;;;10447585;28;20211;-78
2021/04/05 18:22:59;;;;;;;12.73;3.37;;;;;;;;;;10437163;28;20207;-78
2021/04/05 18:28:12;;;;;;;10.87;3.00;;;;;;;;;;10440607;28;20227;-78
2021/04/05 18:33:19;;;;;;;12.20;2.80;;;;;;;;;;10433538;28;20235;-77
2021/04/05 18:38:21;;;;;;;11.13;2.70;;;;;;;;;;10432068;28;20634;-78
2021/04/05 18:43:44;;;;;;;13.67;3.00;;;;;;;;;;10433910;28;20650;-77
2021/04/05 18:48:51;;;;;;;13.53;3.00;;;;;;;;;;10437249;28;20215;-78
2021/04/05 18:53:58;;;;;;;11.03;2.60;;;;;;;;;;10435141;28;20245;-78
2021/04/05 18:59:04;;;;;;;11.37;2.93;;;;;;;;;;10443354;28;20211;-77
2021/04/05 19:04:07;;;;;;;6.53;2.37;;;;;;;;;;10434443;28;20909;-77
2021/04/05 19:09:11;;;;;;;6.27;2.10;;;;;;;;;;10439009;28;20225;-76
2021/04/05 19:14:33;;;;;;;7.07;2.30;;;;;;;;;;10423182;28;20210;-75
2021/04/05 19:19:35;;;;;;;6.47;2.00;;;;;;;;;;10434967;28;20997;-75
2021/04/05 19:24:47;;;;;;;7.57;2.30;;;;;;;;;;10438692;28;20669;-75
2021/04/05 19:29:59;;;;;;;9.83;2.63;;;;;;;;;;10433402;28;20231;-75
2021/04/05 19:35:09;;;;;;;12.00;3.10;;;;;;;;;;10440709;28;20223;-75
2021/04/05 19:40:19;;;;;;;8.70;3.17;;;;;;;;;;10445663;28;20282;-75
2021/04/05 19:45:42;;;;;;;7.63;2.57;;;;;;;;;;10438034;28;20220;-75
2021/04/05 19:50:51;;;;;;;10.70;2.60;;;;;;;;;;10444932;28;20753;-75
2021/04/05 19:55:56;;;;;;;9.53;2.37;;;;;;;;;;10443635;28;20211;-76
2021/04/05 20:01:02;;;;;;;5.30;2.10;;;;;;;;;;10426325;28;20215;-75
2021/04/05 20:06:07;;;;;;;11.03;2.60;;;;;;;;;;10436854;28;20629;-76
2021/04/05 20:11:12;;;;;;;9.70;2.80;;;;;;;;;;10440510;28;20699;-75
2021/04/05 20:16:17;;;;;;;7.83;2.43;;;;;;;;;;10444607;28;20207;-75
2021/04/05 20:21:21;;;;;;;10.07;2.53;;;;;;;;;;10438880;28;20204;-74
2021/04/05 20:26:23;;;;;;;10.00;2.57;;;;;;;;;;10446298;28;20210;-75
2021/04/05 20:31:30;;;;;;;10.50;2.47;;;;;;;;;;10444189;28;20245;-76
2021/04/05 20:36:52;;;;;;;11.37;2.50;;;;;;;;;;10438996;28;20706;-75
2021/04/05 20:42:02;;;;;;;8.70;2.60;;;;;;;;;;10434024;28;20956;-75
2021/04/05 20:47:05;;;;;;;14.60;3.00;;;;;;;;;;10435429;28;20219;-74
2021/04/05 20:52:09;;;;;;;10.87;2.80;;;;;;;;;;10439932;28;20711;-75
2021/04/05 20:57:15;;;;;;;12.67;2.97;;;;;;;;;;10431523;28;20271;-74
2021/04/05 21:02:20;;;;;;;11.07;3.20;;;;;;;;;;10442125;28;20676;-75
2021/04/05 21:07:24;;;;;;;10.27;2.60;;;;;;;;;;10435970;28;20212;-75
2021/04/05 21:12:30;;;;;;;12.50;3.10;;;;;;;;;;10438014;28;20850;-75
2021/04/05 21:17:36;;;;;;;12.27;3.00;;;;;;;;;;10434609;28;20207;-75
2021/04/05 21:22:40;;;;;;;14.37;3.40;;;;;;;;;;10439696;28;20223;-74
2021/04/05 21:27:45;;;;;;;13.60;3.13;;;;;;;;;;10431649;28;20536;-75
2021/04/05 21:32:51;;;;;;;14.53;3.30;;;;;;;;;;10437244;28;20242;-75
2021/04/05 21:37:56;;;;;;;13.23;3.20;;;;;;;;;;10435739;28;20675;-75
2021/04/05 21:43:01;;;;;;;15.60;3.27;;;;;;;;;;10435625;28;20215;-74
2021/04/05 21:48:06;;;;;;;11.40;3.23;;;;;;;;;;10434514;28;20226;-75
2021/04/05 21:53:12;;;;;;;12.87;3.30;;;;;;;;;;10436376;28;20238;-74
2021/04/05 21:58:14;;;;;;;11.73;2.70;;;;;;;;;;10435296;28;20761;-74
2021/04/05 22:03:19;;;;;;;12.43;3.53;;;;;;;;;;10445984;28;20204;-75
2021/04/05 22:08:26;;;;;;;11.83;2.87;;;;;;;;;;10440989;28;20215;-74
2021/04/05 22:13:28;;;;;;;11.17;2.43;;;;;;;;;;10437090;28;20243;-75
2021/04/05 22:18:33;;;;;;;11.60;2.87;;;;;;;;;;10434725;28;20489;-74
2021/04/05 22:23:38;;;;;;;9.80;2.50;;;;;;;;;;10438016;28;20221;-75
2021/04/05 22:28:41;;;;;;;10.47;2.57;;;;;;;;;;10438415;28;20292;-75
2021/04/05 22:33:44;;;;;;;8.00;2.00;;;;;;;;;;10436731;28;20237;-74
2021/04/05 22:38:50;;;;;;;9.23;2.37;;;;;;;;;;10432952;28;20304;-75
2021/04/05 22:43:53;;;;;;;9.80;2.63;;;;;;;;;;10432590;28;20673;-75
2021/04/05 22:48:56;;;;;;;14.53;2.83;;;;;;;;;;10435302;28;20230;-75
2021/04/05 22:54:01;;;;;;;9.23;2.70;;;;;;;;;;10436646;28;20247;-75
2021/04/05 22:59:06;;;;;;;8.63;2.60;;;;;;;;;;10432837;28;21730;-74
2021/04/05 23:04:09;;;;;;;13.80;2.60;;;;;;;;;;10439744;28;20223;-75
2021/04/05 23:09:12;;;;;;;8.73;2.63;;;;;;;;;;10437741;28;20222;-75
2021/04/05 23:14:16;;;;;;;8.77;2.10;;;;;;;;;;10435410;28;20794;-75
2021/04/05 23:19:28;;;;;;;7.20;2.00;;;;;;;;;;10433689;28;20279;-75
2021/04/05 23:24:30;;;;;;;9.57;2.83;;;;;;;;;;10435276;28;20215;-75
2021/04/05 23:29:33;;;;;;;10.53;2.50;;;;;;;;;;10431291;28;20218;-75
2021/04/05 23:34:37;;;;;;;10.53;2.80;;;;;;;;;;10439654;28;20221;-74
2021/04/05 23:39:40;;;;;;;12.90;3.27;;;;;;;;;;10433800;28;20218;-74
2021/04/05 23:44:43;;;;;;;15.30;3.20;;;;;;;;;;10435385;28;20222;-75
2021/04/05 23:49:54;;;;;;;15.47;3.60;;;;;;;;;;10437405;28;20234;-74
2021/04/05 23:54:57;;;;;;;15.27;3.87;;;;;;;;;;10432630;28;20230;-75
2021/04/05 23:59:59;;;;;;;11.07;2.90;;;;;;;;;;10432135;28;20233;-75
